createdAt,value
2023-01-27T00:02:21.329Z,13.90
2023-01-27T00:05:29.771Z,12.93
2023-01-27T00:08:37.931Z,14.43
2023-01-27T00:12:05.277Z,13.87
2023-01-27T00:15:15.735Z,12.23
2023-01-27T00:18:24.555Z,15.33
2023-01-27T00:21:50.370Z,12.13
2023-01-27T00:24:58.683Z,11.63
2023-01-27T00:28:08.333Z,16.57
2023-01-27T00:31:36.196Z,10.70
2023-01-27T00:34:44.443Z,16.47
2023-01-27T00:37:53.514Z,14.33
2023-01-27T00:41:19.711Z,14.97
2023-01-27T00:44:30.161Z,11.10
2023-01-27T00:47:38.271Z,13.90
2023-01-27T00:50:46.742Z,15.57
2023-01-27T00:53:54.896Z,13.87
2023-01-27T00:57:04.370Z,12.03
2023-01-27T01:00:17.095Z,10.07
2023-01-27T01:03:25.361Z,12.43
2023-01-27T01:06:33.773Z,12.53
2023-01-27T01:09:42.176Z,12.90
2023-01-27T01:12:50.596Z,11.33
2023-01-27T01:16:07.423Z,14.77
2023-01-27T01:19:15.742Z,15.77
2023-01-27T01:22:25.172Z,15.10
2023-01-27T01:25:34.067Z,10.57
2023-01-27T01:28:44.498Z,14.17
2023-01-27T01:31:54.107Z,13.60
2023-01-27T01:35:02.473Z,12.57
2023-01-27T01:38:11.319Z,13.30
2023-01-27T01:41:21.784Z,14.27
2023-01-27T01:44:33.181Z,13.27
2023-01-27T01:47:42.960Z,11.97
2023-01-27T01:50:58.255Z,11.53
2023-01-27T01:54:16.191Z,12.13
2023-01-27T01:57:32.385Z,17.33
2023-01-27T02:00:42.054Z,16.60
2023-01-27T02:04:00.744Z,14.43
2023-01-27T02:07:17.015Z,15.10
2023-01-27T02:10:25.953Z,13.07
2023-01-27T02:13:34.441Z,12.93
2023-01-27T02:16:45.759Z,14.33
2023-01-27T02:20:08.845Z,12.37
2023-01-27T02:23:33.683Z,13.63
2023-01-27T02:26:45.777Z,12.23
2023-01-27T02:29:54.251Z,11.30
2023-01-27T02:33:02.634Z,12.33
2023-01-27T02:36:16.209Z,10.87
2023-01-27T02:39:33.690Z,11.37
2023-01-27T02:42:43.548Z,10.20
2023-01-27T02:45:52.804Z,11.47
2023-01-27T02:49:01.493Z,11.27
2023-01-27T02:52:10.155Z,10.30
2023-01-27T02:55:18.801Z,11.30
2023-01-27T02:58:28.619Z,10.47
2023-01-27T03:01:48.092Z,11.93
2023-01-27T03:04:56.434Z,11.33
2023-01-27T03:08:06.184Z,11.87
2023-01-27T03:11:14.443Z,12.43
2023-01-27T03:14:38.014Z,11.00
2023-01-27T03:18:04.134Z,12.37
2023-01-27T03:21:12.263Z,11.07
2023-01-27T03:24:21.167Z,10.10
2023-01-27T03:27:29.560Z,9.17
2023-01-27T03:31:02.034Z,9.80
2023-01-27T03:34:20.551Z,10.53
2023-01-27T03:37:52.878Z,12.03
2023-01-27T03:41:21.077Z,8.60
2023-01-27T03:44:46.830Z,8.63
2023-01-27T03:47:56.376Z,8.30
2023-01-27T03:51:08.608Z,8.80
2023-01-27T03:54:16.845Z,8.37
2023-01-27T03:57:25.025Z,8.10
2023-01-27T04:00:33.753Z,8.47
2023-01-27T04:04:01.555Z,9.17
2023-01-27T04:07:10.913Z,8.60
2023-01-27T04:10:19.391Z,7.10
2023-01-27T04:13:26.522Z,7.03
2023-01-27T04:16:36.710Z,6.60
2023-01-27T04:19:47.380Z,8.47
2023-01-27T04:22:57.653Z,9.33
2023-01-27T04:26:05.953Z,11.00
2023-01-27T04:29:15.334Z,9.30
2023-01-27T04:32:23.588Z,7.37
2023-01-27T04:35:38.562Z,7.37
2023-01-27T04:38:47.580Z,7.90
2023-01-27T04:41:57.015Z,8.73
2023-01-27T04:45:05.909Z,8.03
2023-01-27T04:48:14.329Z,6.17
2023-01-27T04:51:24.635Z,5.00
2023-01-27T04:54:33.165Z,6.33
2023-01-27T04:57:41.258Z,8.33
2023-01-27T05:00:49.683Z,5.00
2023-01-27T05:03:58.745Z,6.13
2023-01-27T05:07:08.445Z,5.43
2023-01-27T05:10:16.959Z,7.23
2023-01-27T05:13:25.301Z,6.70
2023-01-27T05:16:33.890Z,5.57
2023-01-27T05:19:42.264Z,7.47
2023-01-27T05:23:12.451Z,5.83
2023-01-27T05:26:24.133Z,4.43
2023-01-27T05:29:32.726Z,4.93
2023-01-27T05:32:40.968Z,5.93
2023-01-27T05:35:49.305Z,5.87
2023-01-27T05:39:00.647Z,3.53
2023-01-27T05:42:09.095Z,8.00
2023-01-27T05:45:17.574Z,6.83
2023-01-27T05:48:25.961Z,5.83
2023-01-27T05:51:37.970Z,8.00
2023-01-27T05:54:47.692Z,6.00
2023-01-27T05:57:58.638Z,7.53
2023-01-27T06:01:11.127Z,6.20
2023-01-27T06:04:19.492Z,7.27
2023-01-27T06:07:27.890Z,7.57
2023-01-27T06:10:37.597Z,7.50
2023-01-27T06:13:45.669Z,5.80
2023-01-27T06:16:54.283Z,7.23
2023-01-27T06:20:02.375Z,4.33
2023-01-27T06:23:12.734Z,8.30
2023-01-27T06:26:22.545Z,8.50
2023-01-27T06:29:30.689Z,9.23
2023-01-27T06:32:39.762Z,8.23
2023-01-27T06:35:48.535Z,10.27
2023-01-27T06:38:56.638Z,10.60
2023-01-27T06:42:07.510Z,12.07
2023-01-27T06:45:16.304Z,7.97
2023-01-27T06:48:24.461Z,10.70
2023-01-27T06:51:32.849Z,6.07
2023-01-27T06:54:41.460Z,11.00
2023-01-27T06:57:54.133Z,9.07
2023-01-27T07:01:02.776Z,8.60
2023-01-27T07:04:11.806Z,7.43
2023-01-27T07:07:19.896Z,11.53
2023-01-27T07:10:28.943Z,8.77
2023-01-27T07:13:38.725Z,8.43
2023-01-27T07:16:47.425Z,10.07
2023-01-27T07:19:55.553Z,9.93
2023-01-27T07:23:07.325Z,10.30
2023-01-27T07:26:24.980Z,11.97
2023-01-27T07:29:35.291Z,17.10
2023-01-27T07:32:43.416Z,11.50
2023-01-27T07:35:52.051Z,16.03
2023-01-27T07:39:00.394Z,10.00
2023-01-27T07:42:09.879Z,11.20
2023-01-27T07:45:19.957Z,10.53
2023-01-27T07:48:28.831Z,9.40
2023-01-27T07:51:37.203Z,7.90
2023-01-27T07:54:45.575Z,7.87
2023-01-27T07:57:54.942Z,7.47
2023-01-27T08:01:08.302Z,7.10
2023-01-27T08:04:17.125Z,8.43
2023-01-27T08:07:25.781Z,8.97
2023-01-27T08:10:34.237Z,8.23
2023-01-27T08:13:43.888Z,12.60
2023-01-27T08:16:53.861Z,9.70
2023-01-27T08:20:02.469Z,9.07
2023-01-27T08:23:10.632Z,9.80
2023-01-27T08:26:18.989Z,8.50
2023-01-27T08:29:29.463Z,9.00
2023-01-27T08:32:39.642Z,10.07
2023-01-27T08:35:48.376Z,7.67
2023-01-27T08:38:57.586Z,11.20
2023-01-27T08:42:05.911Z,9.07
2023-01-27T08:45:14.284Z,9.70
2023-01-27T08:48:23.907Z,7.60
2023-01-27T08:51:32.341Z,11.57
2023-01-27T08:54:40.625Z,7.70
2023-01-27T08:57:49.542Z,8.77
2023-01-27T09:01:01.673Z,7.47
2023-01-27T09:04:11.310Z,8.60
2023-01-27T09:07:19.959Z,8.93
2023-01-27T09:10:28.080Z,10.87
2023-01-27T09:13:36.362Z,10.80
2023-01-27T09:16:44.710Z,9.80
2023-01-27T09:19:54.699Z,10.13
2023-01-27T09:23:03.275Z,8.27
2023-01-27T09:26:11.411Z,8.73
2023-01-27T09:29:19.598Z,9.90
2023-01-27T09:32:27.668Z,10.47
2023-01-27T09:35:46.828Z,8.80
2023-01-27T09:39:02.827Z,6.63
2023-01-27T09:42:53.637Z,8.47
2023-01-27T09:46:31.961Z,8.17
2023-01-27T09:50:19.750Z,8.07
2023-01-27T09:53:53.261Z,6.90
2023-01-27T09:57:15.762Z,6.80
2023-01-27T10:00:46.679Z,7.20
2023-01-27T10:04:26.138Z,8.60
2023-01-27T10:08:11.031Z,8.30
2023-01-27T10:11:35.399Z,8.07
2023-01-27T10:14:57.371Z,5.60
2023-01-27T10:18:21.748Z,6.60
2023-01-27T10:21:44.959Z,7.17
2023-01-27T10:25:13.919Z,7.43
2023-01-27T10:28:28.275Z,9.97
2023-01-27T10:31:42.366Z,7.17
2023-01-27T10:35:05.342Z,10.10
2023-01-27T10:38:27.085Z,8.33
2023-01-27T10:41:49.967Z,8.57
2023-01-27T10:45:21.155Z,9.57
2023-01-27T10:48:45.957Z,12.00
2023-01-27T10:52:00.502Z,9.00
2023-01-27T10:55:18.635Z,10.43
2023-01-27T10:58:48.998Z,12.47
2023-01-27T11:02:11.409Z,10.77
2023-01-27T11:05:28.316Z,11.93
2023-01-27T11:08:42.038Z,13.13
2023-01-27T11:11:53.470Z,12.07
2023-01-27T11:15:15.063Z,12.73
2023-01-27T11:18:29.249Z,14.50
2023-01-27T11:21:38.794Z,10.87
2023-01-27T11:24:54.255Z,14.33
2023-01-27T11:28:18.627Z,15.40
2023-01-27T11:31:43.894Z,12.47
2023-01-27T11:35:04.907Z,13.63
2023-01-27T11:38:20.265Z,10.90
2023-01-27T11:41:28.983Z,11.53
2023-01-27T11:44:38.689Z,11.97
2023-01-27T11:47:52.079Z,10.80
2023-01-27T11:51:03.570Z,10.27
2023-01-27T11:54:19.570Z,11.07
2023-01-27T11:57:29.452Z,8.00
2023-01-27T12:00:45.109Z,11.07
2023-01-27T12:04:04.454Z,10.70
2023-01-27T12:07:22.321Z,8.60
2023-01-27T12:10:35.369Z,9.83
2023-01-27T12:13:56.144Z,9.20
2023-01-27T12:17:09.403Z,9.43
2023-01-27T12:20:39.837Z,9.27
2023-01-27T12:23:54.811Z,10.73
2023-01-27T12:27:06.437Z,12.40
2023-01-27T12:30:24.072Z,9.50
2023-01-27T12:33:36.707Z,12.80
2023-01-27T12:36:46.342Z,10.97
2023-01-27T12:40:04.028Z,9.30
2023-01-27T12:43:16.368Z,10.40
2023-01-27T12:46:27.277Z,10.83
2023-01-27T12:49:40.914Z,13.60
2023-01-27T12:52:56.513Z,12.23
2023-01-27T12:56:18.882Z,11.73
2023-01-27T12:59:27.847Z,11.23
2023-01-27T13:02:37.192Z,11.20
2023-01-27T13:05:45.829Z,15.33
2023-01-27T13:08:54.410Z,10.10
2023-01-27T13:12:16.601Z,15.73
2023-01-27T13:15:28.538Z,21.83
2023-01-27T13:18:40.780Z,13.47
2023-01-27T13:21:55.203Z,10.63
2023-01-27T13:25:06.096Z,7.03
2023-01-27T13:28:25.205Z,10.03
2023-01-27T13:31:45.220Z,11.73
2023-01-27T13:35:06.521Z,10.73
2023-01-27T13:38:31.715Z,13.80
2023-01-27T13:41:47.830Z,11.67
2023-01-27T13:45:05.775Z,9.57
2023-01-27T13:48:23.694Z,10.57
2023-01-27T13:51:36.963Z,11.47
2023-01-27T13:54:46.644Z,12.97
2023-01-27T13:58:10.737Z,14.43
2023-01-27T14:01:30.014Z,16.10
2023-01-27T14:05:05.240Z,10.83
2023-01-27T14:08:41.035Z,14.47
2023-01-27T14:11:56.564Z,14.43
2023-01-27T14:15:25.330Z,14.03
2023-01-27T14:18:42.483Z,9.83
2023-01-27T14:22:01.277Z,11.63
2023-01-27T14:25:25.329Z,12.30
2023-01-27T14:28:53.437Z,10.40
2023-01-27T14:32:16.153Z,12.30
2023-01-27T14:35:44.041Z,11.43
2023-01-27T14:39:06.808Z,15.23
2023-01-27T14:42:25.198Z,14.23
2023-01-27T14:45:37.518Z,11.10
2023-01-27T14:49:06.486Z,14.27
2023-01-27T14:52:40.065Z,13.53
2023-01-27T14:55:56.750Z,9.17
2023-01-27T14:59:21.209Z,10.70
2023-01-27T15:02:46.525Z,12.83
2023-01-27T15:06:05.815Z,10.73
2023-01-27T15:09:41.820Z,15.70
2023-01-27T15:13:36.213Z,11.37
2023-01-27T15:17:01.726Z,13.70
2023-01-27T15:21:00.749Z,13.80
2023-01-27T15:24:53.414Z,13.00
2023-01-27T15:28:03.773Z,13.80
2023-01-27T15:31:28.538Z,11.50
2023-01-27T15:34:36.877Z,12.27
2023-01-27T15:38:01.256Z,12.17
2023-01-27T15:41:15.766Z,13.97
2023-01-27T15:44:39.278Z,12.57
2023-01-27T15:47:47.579Z,11.03
2023-01-27T15:51:02.162Z,12.20
2023-01-27T15:54:20.165Z,12.73
2023-01-27T15:57:36.387Z,16.10
2023-01-27T16:00:52.725Z,15.00
2023-01-27T16:04:14.481Z,15.20
2023-01-27T16:07:34.096Z,13.13
2023-01-27T16:10:43.776Z,12.33
2023-01-27T16:13:55.004Z,16.20
2023-01-27T16:17:10.795Z,13.63
2023-01-27T16:20:28.201Z,10.53
2023-01-27T16:23:50.110Z,15.30
2023-01-27T16:27:09.787Z,13.93
2023-01-27T16:30:25.029Z,10.37
2023-01-27T16:33:39.815Z,14.10
2023-01-27T16:36:48.423Z,12.77
2023-01-27T16:40:05.764Z,14.83
2023-01-27T16:43:21.021Z,10.90
2023-01-27T16:46:36.116Z,11.87
2023-01-27T16:49:45.157Z,10.40
2023-01-27T16:52:53.661Z,11.67
2023-01-27T16:56:06.307Z,15.73
2023-01-27T16:59:24.187Z,14.17
2023-01-27T17:02:35.469Z,15.37
2023-01-27T17:05:51.996Z,15.87
2023-01-27T17:09:02.193Z,14.97
2023-01-27T17:12:31.046Z,14.03
2023-01-27T17:15:43.469Z,13.47
2023-01-27T17:18:56.937Z,12.43
2023-01-27T17:22:10.279Z,16.40
2023-01-27T17:25:29.823Z,15.03
2023-01-27T17:28:39.125Z,12.60
2023-01-27T17:31:48.452Z,13.27
2023-01-27T17:35:02.831Z,15.00
2023-01-27T17:38:15.881Z,11.70
2023-01-27T17:41:35.009Z,24.23
2023-01-27T17:44:43.461Z,23.93
2023-01-27T17:47:52.523Z,14.00
2023-01-27T17:51:02.582Z,16.67
2023-01-27T17:54:25.486Z,13.07
2023-01-27T17:57:36.115Z,17.77
2023-01-27T18:00:47.686Z,26.03
2023-01-27T18:03:58.997Z,14.57
2023-01-27T18:07:09.984Z,16.47
2023-01-27T18:10:26.985Z,10.97
2023-01-27T18:13:41.288Z,12.20
2023-01-27T18:17:04.274Z,13.63
2023-01-27T18:20:29.591Z,14.97
2023-01-27T18:23:46.540Z,13.33
2023-01-27T18:26:56.722Z,13.83
2023-01-27T18:30:13.658Z,16.17
2023-01-27T18:33:22.182Z,16.40
2023-01-27T18:36:35.481Z,12.80
2023-01-27T18:39:45.232Z,15.10
2023-01-27T18:42:54.997Z,14.73
2023-01-27T18:46:03.456Z,16.37
2023-01-27T18:49:13.920Z,18.00
2023-01-27T18:52:23.020Z,19.80
2023-01-27T18:55:32.883Z,13.47
2023-01-27T18:58:41.068Z,17.43
2023-01-27T19:01:49.263Z,17.37
2023-01-27T19:04:59.074Z,22.07
2023-01-27T19:08:07.797Z,21.80
2023-01-27T19:11:18.085Z,18.70
2023-01-27T19:14:26.473Z,19.27
2023-01-27T19:17:35.002Z,19.57
2023-01-27T19:20:43.505Z,23.53
2023-01-27T19:23:51.991Z,20.20
2023-01-27T19:27:04.163Z,18.07
2023-01-27T19:30:27.678Z,16.03
2023-01-27T19:33:37.217Z,17.73
2023-01-27T19:36:46.657Z,21.00
2023-01-27T19:39:55.059Z,22.33
2023-01-27T19:43:05.522Z,20.10
2023-01-27T19:46:16.999Z,15.27
2023-01-27T19:49:25.118Z,17.10
2023-01-27T19:52:33.238Z,17.23
2023-01-27T19:55:42.940Z,19.47
2023-01-27T19:58:54.845Z,18.63
2023-01-27T20:02:03.270Z,18.80
2023-01-27T20:05:11.767Z,26.40
2023-01-27T20:08:22.923Z,17.87
2023-01-27T20:11:37.846Z,18.87
2023-01-27T20:14:47.661Z,18.70
2023-01-27T20:17:57.037Z,20.97
2023-01-27T20:21:05.283Z,23.40
2023-01-27T20:24:17.045Z,25.53
2023-01-27T20:27:26.470Z,23.37
2023-01-27T20:30:36.339Z,21.20
2023-01-27T20:33:45.073Z,23.70
2023-01-27T20:36:53.449Z,21.80
2023-01-27T20:40:01.604Z,22.20
2023-01-27T20:43:10.047Z,20.00
2023-01-27T20:46:20.875Z,19.10
2023-01-27T20:49:29.173Z,22.60
2023-01-27T20:52:40.031Z,18.40
2023-01-27T20:55:48.447Z,19.97
2023-01-27T20:58:56.670Z,21.27
2023-01-27T21:02:06.453Z,23.73
2023-01-27T21:05:16.178Z,21.33
2023-01-27T21:08:24.870Z,21.17
2023-01-27T21:11:33.498Z,18.43
2023-01-27T21:14:41.910Z,21.80
2023-01-27T21:17:53.403Z,26.40
2023-01-27T21:21:04.154Z,23.07
2023-01-27T21:24:12.731Z,20.77
2023-01-27T21:27:20.935Z,18.73
2023-01-27T21:30:30.000Z,17.03
2023-01-27T21:33:40.582Z,18.60
2023-01-27T21:36:49.000Z,19.03
2023-01-27T21:39:57.215Z,19.93
2023-01-27T21:43:23.078Z,19.03
2023-01-27T21:46:31.976Z,18.73
2023-01-27T21:50:01.094Z,16.23
2023-01-27T21:53:11.120Z,16.80
2023-01-27T21:56:19.569Z,19.07
2023-01-27T21:59:27.648Z,16.40
2023-01-27T22:02:36.715Z,19.20
2023-01-27T22:05:46.476Z,21.80
2023-01-27T22:08:54.903Z,18.67
2023-01-27T22:12:03.283Z,20.27
2023-01-27T22:15:15.216Z,20.43
2023-01-27T22:18:23.995Z,20.30
2023-01-27T22:21:33.952Z,15.07
2023-01-27T22:24:42.818Z,16.80
2023-01-27T22:27:54.862Z,14.60
2023-01-27T22:31:03.642Z,16.97
2023-01-27T22:34:12.497Z,17.07
2023-01-27T22:37:21.966Z,13.73
2023-01-27T22:40:30.686Z,14.80
2023-01-27T22:43:39.041Z,18.13
2023-01-27T22:46:50.341Z,13.23
2023-01-27T22:49:58.692Z,12.87
2023-01-27T22:53:12.144Z,16.23
2023-01-27T22:56:20.218Z,13.90
2023-01-27T22:59:28.608Z,14.50
2023-01-27T23:02:37.654Z,14.83
2023-01-27T23:05:45.860Z,13.73
2023-01-27T23:08:55.673Z,14.53
2023-01-27T23:12:04.068Z,15.53
2023-01-27T23:15:13.515Z,13.17
2023-01-27T23:18:21.901Z,13.40
2023-01-27T23:21:31.429Z,14.27
2023-01-27T23:24:41.167Z,16.80
2023-01-27T23:27:49.364Z,14.83
2023-01-27T23:30:57.823Z,16.40
2023-01-27T23:34:06.673Z,17.00
2023-01-27T23:37:15.141Z,18.40
2023-01-27T23:40:25.136Z,14.80
2023-01-27T23:43:33.805Z,14.13
2023-01-27T23:46:43.313Z,18.03
2023-01-27T23:49:51.482Z,16.20
2023-01-27T23:52:59.806Z,18.07
2023-01-27T23:56:14.148Z,15.80
2023-01-27T23:59:22.558Z,19.30
